createdAt,value
2022-09-16T00:02:08.000Z,4.3
2022-09-16T00:05:41.000Z,4.5
2022-09-16T00:09:14.000Z,4
2022-09-16T00:12:47.000Z,4
2022-09-16T00:16:19.000Z,4.1
2022-09-16T00:19:10.000Z,4.2
2022-09-16T00:22:43.000Z,4.2
2022-09-16T00:26:15.000Z,3.7
2022-09-16T00:29:48.000Z,3.6
2022-09-16T00:33:21.000Z,3.7
2022-09-16T00:36:54.000Z,4.4
2022-09-16T00:40:26.000Z,4.1
2022-09-16T00:43:59.000Z,4
2022-09-16T00:47:31.000Z,5.3
2022-09-16T00:51:04.000Z,5.4
2022-09-16T00:54:37.000Z,5.2
2022-09-16T00:57:28.000Z,5.1
2022-09-16T01:01:00.000Z,5.8
2022-09-16T01:04:33.000Z,5.7
2022-09-16T01:08:06.000Z,5.6
2022-09-16T01:11:38.000Z,5.9
2022-09-16T01:15:11.000Z,5.8
2022-09-16T01:18:44.000Z,6.1
2022-09-16T01:22:16.000Z,6.2
2022-09-16T01:25:49.000Z,5.6
2022-09-16T01:29:22.000Z,5.4
2022-09-16T01:32:55.000Z,4.6
2022-09-16T01:35:46.000Z,4.8
2022-09-16T01:39:18.000Z,6.1
2022-09-16T01:42:51.000Z,5.3
2022-09-16T01:46:23.000Z,5.4
2022-09-16T01:49:56.000Z,5.4
2022-09-16T01:53:29.000Z,6.2
2022-09-16T01:57:01.000Z,5.9
2022-09-16T02:00:34.000Z,6.2
2022-09-16T02:04:07.000Z,6.5
2022-09-16T02:07:39.000Z,6.4
2022-09-16T02:11:12.000Z,7.4
2022-09-16T02:14:03.000Z,6.7
2022-09-16T02:17:36.000Z,7.1
2022-09-16T02:21:08.000Z,6.6
2022-09-16T02:24:41.000Z,6.8
2022-09-16T02:28:13.000Z,6.3
2022-09-16T02:31:46.000Z,6.4
2022-09-16T02:35:21.000Z,6.5
2022-09-16T02:38:53.000Z,6
2022-09-16T02:42:26.000Z,6.1
2022-09-16T02:45:59.000Z,6
2022-09-16T02:49:31.000Z,6.2
2022-09-16T02:52:23.000Z,5.8
2022-09-16T02:55:55.000Z,5.7
2022-09-16T02:59:28.000Z,5.2
2022-09-16T03:03:00.000Z,5
2022-09-16T03:06:33.000Z,5
2022-09-16T03:10:05.000Z,4.7
2022-09-16T03:13:38.000Z,4.4
2022-09-16T03:17:11.000Z,4.2
2022-09-16T03:20:43.000Z,4.3
2022-09-16T03:24:16.000Z,3.5
2022-09-16T03:27:48.000Z,3.3
2022-09-16T03:30:39.000Z,3.7
2022-09-16T03:34:12.000Z,3.1
2022-09-16T03:37:45.000Z,3.6
2022-09-16T03:41:17.000Z,3.9
2022-09-16T03:44:50.000Z,3.5
2022-09-16T03:48:23.000Z,2.9
2022-09-16T03:51:55.000Z,2.9
2022-09-16T03:55:28.000Z,3.3
2022-09-16T03:59:01.000Z,3.4
2022-09-16T04:02:33.000Z,3.2
2022-09-16T04:06:06.000Z,3.4
2022-09-16T04:08:57.000Z,3.6
2022-09-16T04:12:30.000Z,4.2
2022-09-16T04:16:02.000Z,3.6
2022-09-16T04:19:35.000Z,4
2022-09-16T04:23:07.000Z,3.2
2022-09-16T04:26:40.000Z,3.4
2022-09-16T04:30:13.000Z,3.2
2022-09-16T04:33:45.000Z,3.5
2022-09-16T04:37:18.000Z,3.5
2022-09-16T04:40:50.000Z,3.2
2022-09-16T04:44:23.000Z,3.4
2022-09-16T04:47:14.000Z,3.1
2022-09-16T04:50:47.000Z,3.2
2022-09-16T04:54:19.000Z,3.5
2022-09-16T04:57:52.000Z,3.2
2022-09-16T05:01:25.000Z,3.2
2022-09-16T05:04:57.000Z,3.3
2022-09-16T05:08:30.000Z,3
2022-09-16T05:12:03.000Z,3.3
2022-09-16T05:15:35.000Z,3.4
2022-09-16T05:19:45.000Z,3.3
2022-09-16T05:23:18.000Z,3.2
2022-09-16T05:26:09.000Z,2.7
2022-09-16T05:29:42.000Z,3.4
2022-09-16T05:33:15.000Z,2.8
2022-09-16T05:36:47.000Z,3.2
2022-09-16T05:40:20.000Z,3.3
2022-09-16T05:43:53.000Z,3.3
2022-09-16T05:47:31.000Z,2.9
2022-09-16T05:51:03.000Z,3
2022-09-16T05:54:36.000Z,2.6
2022-09-16T05:58:09.000Z,2.7
2022-09-16T06:01:41.000Z,2.5
2022-09-16T06:04:33.000Z,2.7
2022-09-16T06:08:05.000Z,2.8
2022-09-16T06:11:38.000Z,2.7
2022-09-16T06:15:10.000Z,2.7
2022-09-16T06:18:43.000Z,2.7
2022-09-16T06:22:16.000Z,2.4
2022-09-16T06:25:48.000Z,2.4
2022-09-16T06:29:21.000Z,2.2
2022-09-16T06:32:54.000Z,3
2022-09-16T06:36:26.000Z,2.6
2022-09-16T06:39:59.000Z,3
2022-09-16T06:42:50.000Z,2.8
2022-09-16T06:46:25.000Z,3.7
2022-09-16T06:49:58.000Z,3.1
2022-09-16T06:53:30.000Z,3.7
2022-09-16T06:57:03.000Z,2.8
2022-09-16T07:00:37.000Z,3
2022-09-16T07:04:10.000Z,3
2022-09-16T07:07:42.000Z,2.6
2022-09-16T07:11:15.000Z,3
2022-09-16T07:14:48.000Z,2.9
2022-09-16T07:18:20.000Z,2.4
2022-09-16T07:21:11.000Z,2.6
2022-09-16T07:24:44.000Z,3
2022-09-16T07:28:16.000Z,2.8
2022-09-16T07:31:49.000Z,2.7
2022-09-16T07:35:22.000Z,3.1
2022-09-16T07:38:54.000Z,3.3
2022-09-16T07:42:28.000Z,3.1
2022-09-16T07:46:01.000Z,3
2022-09-16T07:49:33.000Z,3.5
2022-09-16T07:53:06.000Z,2.7
2022-09-16T07:56:39.000Z,3.2
2022-09-16T07:59:30.000Z,2.6
2022-09-16T08:03:03.000Z,2.7
2022-09-16T08:06:36.000Z,2.5
2022-09-16T08:10:09.000Z,2.6
2022-09-16T08:13:42.000Z,2.2
2022-09-16T08:17:14.000Z,2.3
2022-09-16T08:20:47.000Z,2.5
2022-09-16T08:24:19.000Z,2.5
2022-09-16T08:27:52.000Z,2.4
2022-09-16T08:31:25.000Z,2
2022-09-16T08:34:57.000Z,2
2022-09-16T08:37:48.000Z,2.1
2022-09-16T08:41:21.000Z,2
2022-09-16T08:44:54.000Z,1.9
2022-09-16T08:48:26.000Z,2
2022-09-16T08:51:59.000Z,2.1
2022-09-16T08:55:31.000Z,1.9
2022-09-16T08:59:04.000Z,1.9
2022-09-16T09:02:37.000Z,2
2022-09-16T09:06:10.000Z,1.9
2022-09-16T09:09:42.000Z,2.1
2022-09-16T09:13:15.000Z,2.2
2022-09-16T09:16:06.000Z,2.2
2022-09-16T09:19:47.000Z,2.3
2022-09-16T09:23:19.000Z,2.3
2022-09-16T09:26:55.000Z,2
2022-09-16T09:30:28.000Z,2.2
2022-09-16T09:34:00.000Z,2.5
2022-09-16T09:37:33.000Z,2
2022-09-16T09:41:05.000Z,2.3
2022-09-16T09:44:38.000Z,2.1
2022-09-16T09:48:11.000Z,2
2022-09-16T09:51:43.000Z,2.1
2022-09-16T09:54:34.000Z,1.8
2022-09-16T09:58:07.000Z,2.3
2022-09-16T10:01:40.000Z,2.1
2022-09-16T10:05:13.000Z,1.7
2022-09-16T10:08:45.000Z,2.2
2022-09-16T10:12:18.000Z,2
2022-09-16T10:15:51.000Z,1.6
2022-09-16T10:19:23.000Z,1.6
2022-09-16T10:22:56.000Z,2.3
2022-09-16T10:26:29.000Z,1.9
2022-09-16T10:30:02.000Z,1.9
2022-09-16T10:32:53.000Z,1.8
2022-09-16T10:36:26.000Z,1.7
2022-09-16T10:39:58.000Z,2
2022-09-16T10:43:31.000Z,1.6
2022-09-16T10:47:03.000Z,1.6
2022-09-16T10:50:36.000Z,1.6
2022-09-16T10:54:09.000Z,1.5
2022-09-16T10:57:41.000Z,1.7
2022-09-16T11:01:14.000Z,1.5
2022-09-16T11:04:48.000Z,1.6
2022-09-16T11:08:21.000Z,1.8
2022-09-16T11:11:12.000Z,1.8
2022-09-16T11:14:44.000Z,1.7
2022-09-16T11:18:17.000Z,1.6
2022-09-16T11:21:49.000Z,1.7
2022-09-16T11:25:22.000Z,1.8
2022-09-16T11:28:55.000Z,1.9
2022-09-16T11:32:28.000Z,1.9
2022-09-16T11:36:01.000Z,2.1
2022-09-16T11:39:33.000Z,2.1
2022-09-16T11:43:06.000Z,1.6
2022-09-16T11:46:39.000Z,1.3
2022-09-16T11:49:30.000Z,1.6
2022-09-16T11:53:02.000Z,1.6
2022-09-16T11:56:37.000Z,2
2022-09-16T12:00:09.000Z,2
2022-09-16T12:03:42.000Z,2.7
2022-09-16T12:10:47.000Z,1.6
2022-09-16T12:14:20.000Z,1.9
2022-09-16T12:17:52.000Z,1.7
2022-09-16T12:21:25.000Z,1.6
2022-09-16T12:24:58.000Z,1.7
2022-09-16T12:27:49.000Z,1.5
2022-09-16T12:31:21.000Z,1.6
2022-09-16T12:34:54.000Z,1.6
2022-09-16T12:38:27.000Z,1.9
2022-09-16T12:41:59.000Z,1.7
2022-09-16T12:45:32.000Z,1.7
2022-09-16T12:49:05.000Z,1.7
2022-09-16T12:52:37.000Z,1.7
2022-09-16T12:56:10.000Z,1.8
2022-09-16T12:59:43.000Z,1.7
2022-09-16T13:03:15.000Z,1.8
2022-09-16T13:06:07.000Z,1.6
2022-09-16T13:09:39.000Z,1.8
2022-09-16T13:14:15.000Z,2
2022-09-16T13:17:47.000Z,1.8
2022-09-16T13:21:20.000Z,2.1
2022-09-16T13:24:53.000Z,1.9
2022-09-16T13:28:32.000Z,2.2
2022-09-16T13:32:04.000Z,2.3
2022-09-16T13:35:37.000Z,2.4
2022-09-16T13:39:10.000Z,2.3
2022-09-16T13:42:42.000Z,2.4
2022-09-16T13:45:33.000Z,2.6
2022-09-16T13:49:06.000Z,1.6
2022-09-16T13:52:39.000Z,1.6
2022-09-16T13:56:11.000Z,1.5
2022-09-16T13:59:44.000Z,1.6
2022-09-16T14:03:17.000Z,1.6
2022-09-16T14:06:50.000Z,1.9
2022-09-16T14:10:22.000Z,2.1
2022-09-16T14:13:55.000Z,1.8
2022-09-16T14:17:32.000Z,2.1
2022-09-16T14:21:04.000Z,2.2
2022-09-16T14:23:55.000Z,2
2022-09-16T14:27:28.000Z,2.6
2022-09-16T14:31:01.000Z,2.6
2022-09-16T14:34:34.000Z,2.9
2022-09-16T14:38:06.000Z,2.7
2022-09-16T14:42:06.000Z,2.9
2022-09-16T14:45:39.000Z,2.8
2022-09-16T14:49:28.000Z,2.5
2022-09-16T14:53:00.000Z,2.5
2022-09-16T14:56:33.000Z,2.8
2022-09-16T15:00:06.000Z,2.4
2022-09-16T15:02:57.000Z,2.6
2022-09-16T15:06:30.000Z,1.9
2022-09-16T15:10:13.000Z,1.1
2022-09-16T15:13:47.000Z,0.9
2022-09-16T15:17:20.000Z,1
2022-09-16T15:20:52.000Z,0.9
2022-09-16T15:24:25.000Z,1
2022-09-16T15:27:58.000Z,1.1
2022-09-16T15:31:30.000Z,2.3
2022-09-16T15:35:03.000Z,2.1
2022-09-16T15:38:36.000Z,2
2022-09-16T15:41:28.000Z,2.1
2022-09-16T15:45:01.000Z,2.2
2022-09-16T15:48:34.000Z,2.5
2022-09-16T15:52:06.000Z,2.8
2022-09-16T15:55:39.000Z,2.6
2022-09-16T15:59:11.000Z,2.8
2022-09-16T16:02:44.000Z,2.9
2022-09-16T16:06:17.000Z,2.5
2022-09-16T16:09:50.000Z,2.8
2022-09-16T16:13:22.000Z,2.5
2022-09-16T16:16:55.000Z,2.5
2022-09-16T16:19:57.000Z,2.5
2022-09-16T16:23:29.000Z,2.5
2022-09-16T16:27:02.000Z,2.7
2022-09-16T16:30:35.000Z,2.5
2022-09-16T16:34:07.000Z,2.1
2022-09-16T16:37:40.000Z,2.1
2022-09-16T16:41:13.000Z,1.9
2022-09-16T16:44:45.000Z,1.9
2022-09-16T16:48:18.000Z,2.2
2022-09-16T16:51:51.000Z,2.1
2022-09-16T16:55:23.000Z,2.2
2022-09-16T16:58:14.000Z,2
2022-09-16T17:01:47.000Z,2
2022-09-16T17:05:20.000Z,2.3
2022-09-16T17:09:23.000Z,2.2
2022-09-16T17:12:56.000Z,2.2
2022-09-16T17:16:29.000Z,2.5
2022-09-16T17:20:01.000Z,2.2
2022-09-16T17:23:34.000Z,2
2022-09-16T17:27:06.000Z,1.5
2022-09-16T17:30:39.000Z,1.6
2022-09-16T17:34:12.000Z,1.4
2022-09-16T17:37:03.000Z,1.2
2022-09-16T17:40:36.000Z,0.8
2022-09-16T17:44:08.000Z,1.2
2022-09-16T17:47:41.000Z,1
2022-09-16T17:51:14.000Z,0.8
2022-09-16T17:54:46.000Z,0.9
2022-09-16T17:58:19.000Z,1.5
2022-09-16T18:05:57.000Z,0.9
2022-09-16T18:09:30.000Z,0.8
2022-09-16T18:13:02.000Z,0.7
2022-09-16T18:15:54.000Z,0.8
2022-09-16T18:19:26.000Z,0.7
2022-09-16T18:22:59.000Z,0.5
2022-09-16T18:26:31.000Z,0.7
2022-09-16T18:30:04.000Z,0.5
2022-09-16T18:33:36.000Z,0.6
2022-09-16T18:37:09.000Z,0.6
2022-09-16T18:40:42.000Z,0.7
2022-09-16T18:44:14.000Z,0.7
2022-09-16T18:47:47.000Z,0.8
2022-09-16T18:51:20.000Z,0.7
2022-09-16T18:54:10.000Z,0.7
2022-09-16T18:57:43.000Z,0.7
2022-09-16T19:01:21.000Z,1.1
2022-09-16T19:04:54.000Z,1.9
2022-09-16T19:08:26.000Z,1.5
2022-09-16T19:11:59.000Z,2.6
2022-09-16T19:15:31.000Z,1.5
2022-09-16T19:19:04.000Z,1.9
2022-09-16T19:22:37.000Z,2.2
2022-09-16T19:26:09.000Z,4.4
2022-09-16T19:29:42.000Z,6.7
2022-09-16T19:32:33.000Z,3.9
2022-09-16T19:36:05.000Z,4.4
2022-09-16T19:39:38.000Z,4.6
2022-09-16T19:43:11.000Z,4.2
2022-09-16T19:46:43.000Z,4.2
2022-09-16T19:50:16.000Z,3.7
2022-09-16T19:53:48.000Z,3.8
2022-09-16T19:57:21.000Z,4.2
2022-09-16T20:00:54.000Z,4.7
2022-09-16T20:04:26.000Z,4.1
2022-09-16T20:07:59.000Z,4
2022-09-16T20:10:50.000Z,3.7
2022-09-16T20:14:23.000Z,4.7
2022-09-16T20:17:56.000Z,4.9
2022-09-16T20:21:28.000Z,4.9
2022-09-16T20:25:01.000Z,5.1
2022-09-16T20:28:48.000Z,5.1
2022-09-16T20:32:20.000Z,5.8
2022-09-16T20:35:53.000Z,5.7
2022-09-16T20:39:26.000Z,5.3
2022-09-16T20:42:58.000Z,6.2
2022-09-16T20:46:31.000Z,5.5
2022-09-16T20:49:22.000Z,5.9
2022-09-16T20:52:55.000Z,6.3
2022-09-16T20:56:27.000Z,6.5
2022-09-16T21:00:04.000Z,7.3
2022-09-16T21:03:36.000Z,7.3
2022-09-16T21:07:09.000Z,7.2
2022-09-16T21:10:42.000Z,8.9
2022-09-16T21:14:14.000Z,7.6
2022-09-16T21:17:47.000Z,8.2
2022-09-16T21:21:19.000Z,8.8
2022-09-16T21:24:52.000Z,7.5
2022-09-16T21:27:43.000Z,6.5
2022-09-16T21:31:16.000Z,6.7
2022-09-16T21:34:49.000Z,6.8
2022-09-16T21:38:21.000Z,6.4
2022-09-16T21:41:54.000Z,6.9
2022-09-16T21:45:27.000Z,7
2022-09-16T21:48:59.000Z,7.9
2022-09-16T21:52:32.000Z,7.4
2022-09-16T21:56:04.000Z,7.1
2022-09-16T21:59:37.000Z,7.7
2022-09-16T22:03:10.000Z,7
2022-09-16T22:06:01.000Z,8.5
2022-09-16T22:09:34.000Z,7.6
2022-09-16T22:13:06.000Z,7.9
2022-09-16T22:16:39.000Z,7.7
2022-09-16T22:20:11.000Z,7.1
2022-09-16T22:23:44.000Z,7
2022-09-16T22:27:17.000Z,7.4
2022-09-16T22:30:49.000Z,7.4
2022-09-16T22:34:22.000Z,7.2
2022-09-16T22:37:54.000Z,7.7
2022-09-16T22:41:27.000Z,7.5
2022-09-16T22:44:18.000Z,8.8
2022-09-16T22:47:51.000Z,8.7
2022-09-16T22:51:23.000Z,9.4
2022-09-16T22:54:56.000Z,12.2
2022-09-16T22:58:29.000Z,10.9
2022-09-16T23:02:01.000Z,11.6
2022-09-16T23:05:34.000Z,12.7
2022-09-16T23:09:07.000Z,10.6
2022-09-16T23:12:40.000Z,9.5
2022-09-16T23:16:12.000Z,11.2
2022-09-16T23:19:45.000Z,11.2
2022-09-16T23:22:36.000Z,12.2
2022-09-16T23:26:09.000Z,10.8
2022-09-16T23:29:41.000Z,10.7
2022-09-16T23:33:14.000Z,10.9
2022-09-16T23:36:46.000Z,10.9
2022-09-16T23:40:19.000Z,11
2022-09-16T23:43:52.000Z,10.8
2022-09-16T23:47:24.000Z,10.8
2022-09-16T23:50:58.000Z,11.7
2022-09-16T23:54:30.000Z,11.8
2022-09-16T23:58:03.000Z,11.8
